sensor_id;sensor_type;location;lat;lon;timestamp;P1;durP1;ratioP1;P2;durP2;ratioP2
13720;SDS011;6932;51.438;5.470;2022-12-18T00:01:19;25.80;;;14.50;;
13720;SDS011;6932;51.438;5.470;2022-12-18T00:03:52;27.80;;;14.50;;
13720;SDS011;6932;51.438;5.470;2022-12-18T00:06:20;26.10;;;14.07;;
13720;SDS011;6932;51.438;5.470;2022-12-18T00:08:48;28.30;;;13.83;;
13720;SDS011;6932;51.438;5.470;2022-12-18T00:11:15;25.50;;;13.77;;
13720;SDS011;6932;51.438;5.470;2022-12-18T00:13:43;26.20;;;14.03;;
13720;SDS011;6932;51.438;5.470;2022-12-18T00:16:11;25.50;;;14.73;;
13720;SDS011;6932;51.438;5.470;2022-12-18T00:18:40;23.73;;;13.37;;
13720;SDS011;6932;51.438;5.470;2022-12-18T00:21:07;26.90;;;14.67;;
13720;SDS011;6932;51.438;5.470;2022-12-18T00:23:37;25.73;;;14.27;;
13720;SDS011;6932;51.438;5.470;2022-12-18T00:26:05;28.90;;;14.97;;
13720;SDS011;6932;51.438;5.470;2022-12-18T00:28:35;27.40;;;14.23;;
13720;SDS011;6932;51.438;5.470;2022-12-18T00:31:04;28.27;;;15.40;;
13720;SDS011;6932;51.438;5.470;2022-12-18T00:33:36;27.57;;;14.80;;
13720;SDS011;6932;51.438;5.470;2022-12-18T00:36:05;25.40;;;14.50;;
13720;SDS011;6932;51.438;5.470;2022-12-18T00:38:36;28.17;;;14.90;;
13720;SDS011;6932;51.438;5.470;2022-12-18T00:41:02;27.20;;;14.67;;
13720;SDS011;6932;51.438;5.470;2022-12-18T00:43:28;25.40;;;14.37;;
13720;SDS011;6932;51.438;5.470;2022-12-18T00:45:54;24.87;;;13.33;;
13720;SDS011;6932;51.438;5.470;2022-12-18T00:48:20;26.13;;;14.57;;
13720;SDS011;6932;51.438;5.470;2022-12-18T00:50:47;24.63;;;14.20;;
13720;SDS011;6932;51.438;5.470;2022-12-18T00:53:14;24.97;;;13.90;;
13720;SDS011;6932;51.438;5.470;2022-12-18T00:55:40;25.10;;;13.83;;
13720;SDS011;6932;51.438;5.470;2022-12-18T00:58:07;23.90;;;13.77;;
13720;SDS011;6932;51.438;5.470;2022-12-18T01:00:34;24.87;;;13.77;;
13720;SDS011;6932;51.438;5.470;2022-12-18T01:03:00;26.40;;;14.77;;
13720;SDS011;6932;51.438;5.470;2022-12-18T01:05:26;25.87;;;14.10;;
13720;SDS011;6932;51.438;5.470;2022-12-18T01:07:52;27.53;;;14.33;;
13720;SDS011;6932;51.438;5.470;2022-12-18T01:10:18;26.73;;;14.90;;
13720;SDS011;6932;51.438;5.470;2022-12-18T01:12:44;26.60;;;15.07;;
13720;SDS011;6932;51.438;5.470;2022-12-18T01:15:11;24.87;;;14.03;;
13720;SDS011;6932;51.438;5.470;2022-12-18T01:17:39;26.80;;;14.43;;
13720;SDS011;6932;51.438;5.470;2022-12-18T01:20:05;27.43;;;15.00;;
13720;SDS011;6932;51.438;5.470;2022-12-18T01:22:33;26.03;;;14.63;;
13720;SDS011;6932;51.438;5.470;2022-12-18T01:25:00;25.07;;;14.17;;
13720;SDS011;6932;51.438;5.470;2022-12-18T01:27:26;26.47;;;14.77;;
13720;SDS011;6932;51.438;5.470;2022-12-18T01:29:52;28.80;;;14.30;;
13720;SDS011;6932;51.438;5.470;2022-12-18T01:32:18;24.47;;;14.33;;
13720;SDS011;6932;51.438;5.470;2022-12-18T01:34:44;24.87;;;14.00;;
13720;SDS011;6932;51.438;5.470;2022-12-18T01:37:10;25.13;;;13.53;;
13720;SDS011;6932;51.438;5.470;2022-12-18T01:39:36;22.87;;;13.03;;
13720;SDS011;6932;51.438;5.470;2022-12-18T01:42:02;24.07;;;13.27;;
13720;SDS011;6932;51.438;5.470;2022-12-18T01:50:27;26.43;;;14.30;;
13720;SDS011;6932;51.438;5.470;2022-12-18T01:55:46;26.67;;;13.77;;
13720;SDS011;6932;51.438;5.470;2022-12-18T01:58:18;23.90;;;13.93;;
13720;SDS011;6932;51.438;5.470;2022-12-18T02:00:48;23.90;;;13.03;;
13720;SDS011;6932;51.438;5.470;2022-12-18T02:03:13;23.27;;;13.37;;
13720;SDS011;6932;51.438;5.470;2022-12-18T02:05:47;24.10;;;13.43;;
13720;SDS011;6932;51.438;5.470;2022-12-18T02:08:33;24.73;;;12.70;;
13720;SDS011;6932;51.438;5.470;2022-12-18T02:14:30;25.70;;;13.57;;
13720;SDS011;6932;51.438;5.470;2022-12-18T02:29:13;20.97;;;11.37;;
13720;SDS011;6932;51.438;5.470;2022-12-18T02:32:11;24.20;;;12.70;;
13720;SDS011;6932;51.438;5.470;2022-12-18T02:34:50;23.70;;;12.50;;
13720;SDS011;6932;51.438;5.470;2022-12-18T02:37:19;24.03;;;12.57;;
13720;SDS011;6932;51.438;5.470;2022-12-18T02:39:48;24.20;;;12.00;;
13720;SDS011;6932;51.438;5.470;2022-12-18T02:42:18;21.97;;;12.17;;
13720;SDS011;6932;51.438;5.470;2022-12-18T02:44:45;21.67;;;12.53;;
13720;SDS011;6932;51.438;5.470;2022-12-18T02:47:14;22.07;;;12.00;;
13720;SDS011;6932;51.438;5.470;2022-12-18T02:49:59;22.83;;;12.23;;
13720;SDS011;6932;51.438;5.470;2022-12-18T02:53:17;21.80;;;11.40;;
13720;SDS011;6932;51.438;5.470;2022-12-18T02:56:04;20.83;;;11.43;;
13720;SDS011;6932;51.438;5.470;2022-12-18T03:01:59;21.93;;;11.37;;
13720;SDS011;6932;51.438;5.470;2022-12-18T03:04:28;21.47;;;11.40;;
13720;SDS011;6932;51.438;5.470;2022-12-18T03:06:59;21.13;;;11.30;;
13720;SDS011;6932;51.438;5.470;2022-12-18T03:09:38;20.43;;;11.53;;
13720;SDS011;6932;51.438;5.470;2022-12-18T03:12:14;19.40;;;11.07;;
13720;SDS011;6932;51.438;5.470;2022-12-18T03:17:28;19.57;;;10.67;;
13720;SDS011;6932;51.438;5.470;2022-12-18T03:20:00;21.80;;;11.27;;
13720;SDS011;6932;51.438;5.470;2022-12-18T03:22:36;20.17;;;10.77;;
13720;SDS011;6932;51.438;5.470;2022-12-18T03:25:04;19.23;;;10.27;;
13720;SDS011;6932;51.438;5.470;2022-12-18T03:27:34;19.07;;;10.70;;
13720;SDS011;6932;51.438;5.470;2022-12-18T03:30:07;18.50;;;9.80;;
13720;SDS011;6932;51.438;5.470;2022-12-18T03:32:42;20.10;;;10.80;;
13720;SDS011;6932;51.438;5.470;2022-12-18T03:35:40;18.23;;;9.43;;
13720;SDS011;6932;51.438;5.470;2022-12-18T03:38:08;18.10;;;10.23;;
13720;SDS011;6932;51.438;5.470;2022-12-18T03:40:58;19.60;;;10.47;;
13720;SDS011;6932;51.438;5.470;2022-12-18T03:43:48;17.67;;;9.70;;
13720;SDS011;6932;51.438;5.470;2022-12-18T03:46:35;18.80;;;10.33;;
13720;SDS011;6932;51.438;5.470;2022-12-18T03:52:36;20.20;;;9.83;;
13720;SDS011;6932;51.438;5.470;2022-12-18T03:55:11;20.73;;;10.57;;
13720;SDS011;6932;51.438;5.470;2022-12-18T03:57:37;18.67;;;9.70;;
13720;SDS011;6932;51.438;5.470;2022-12-18T04:00:07;18.97;;;10.33;;
13720;SDS011;6932;51.438;5.470;2022-12-18T04:02:38;19.57;;;10.10;;
13720;SDS011;6932;51.438;5.470;2022-12-18T04:05:09;17.63;;;9.83;;
13720;SDS011;6932;51.438;5.470;2022-12-18T04:07:38;19.33;;;9.47;;
13720;SDS011;6932;51.438;5.470;2022-12-18T04:10:06;18.77;;;9.83;;
13720;SDS011;6932;51.438;5.470;2022-12-18T04:12:41;17.30;;;9.10;;
13720;SDS011;6932;51.438;5.470;2022-12-18T04:15:08;19.37;;;10.13;;
13720;SDS011;6932;51.438;5.470;2022-12-18T04:17:36;17.97;;;9.83;;
13720;SDS011;6932;51.438;5.470;2022-12-18T04:20:04;18.17;;;9.70;;
13720;SDS011;6932;51.438;5.470;2022-12-18T04:22:30;19.30;;;9.70;;
13720;SDS011;6932;51.438;5.470;2022-12-18T04:24:56;17.83;;;9.10;;
13720;SDS011;6932;51.438;5.470;2022-12-18T04:27:21;17.33;;;8.93;;
13720;SDS011;6932;51.438;5.470;2022-12-18T04:29:47;18.27;;;9.27;;
13720;SDS011;6932;51.438;5.470;2022-12-18T04:32:13;17.70;;;9.53;;
13720;SDS011;6932;51.438;5.470;2022-12-18T04:34:39;17.93;;;9.53;;
13720;SDS011;6932;51.438;5.470;2022-12-18T04:37:04;17.67;;;8.97;;
13720;SDS011;6932;51.438;5.470;2022-12-18T04:39:30;18.33;;;9.13;;
13720;SDS011;6932;51.438;5.470;2022-12-18T04:41:56;17.50;;;8.93;;
13720;SDS011;6932;51.438;5.470;2022-12-18T04:44:24;18.87;;;9.33;;
13720;SDS011;6932;51.438;5.470;2022-12-18T04:46:50;16.33;;;8.97;;
13720;SDS011;6932;51.438;5.470;2022-12-18T04:49:16;19.23;;;9.37;;
13720;SDS011;6932;51.438;5.470;2022-12-18T04:51:41;16.77;;;8.97;;
13720;SDS011;6932;51.438;5.470;2022-12-18T04:54:07;17.63;;;9.30;;
13720;SDS011;6932;51.438;5.470;2022-12-18T04:56:33;16.97;;;8.77;;
13720;SDS011;6932;51.438;5.470;2022-12-18T04:58:59;16.47;;;8.80;;
13720;SDS011;6932;51.438;5.470;2022-12-18T05:01:24;15.70;;;8.47;;
13720;SDS011;6932;51.438;5.470;2022-12-18T05:03:51;17.27;;;8.60;;
13720;SDS011;6932;51.438;5.470;2022-12-18T05:06:17;16.17;;;8.33;;
13720;SDS011;6932;51.438;5.470;2022-12-18T05:08:43;16.03;;;8.03;;
13720;SDS011;6932;51.438;5.470;2022-12-18T05:11:09;17.63;;;8.73;;
13720;SDS011;6932;51.438;5.470;2022-12-18T05:13:40;17.40;;;8.80;;
13720;SDS011;6932;51.438;5.470;2022-12-18T05:16:08;17.93;;;8.83;;
13720;SDS011;6932;51.438;5.470;2022-12-18T05:18:34;18.97;;;9.00;;
13720;SDS011;6932;51.438;5.470;2022-12-18T05:21:01;17.67;;;8.77;;
13720;SDS011;6932;51.438;5.470;2022-12-18T05:23:27;15.73;;;7.90;;
13720;SDS011;6932;51.438;5.470;2022-12-18T05:25:57;14.07;;;7.73;;
13720;SDS011;6932;51.438;5.470;2022-12-18T05:28:27;14.40;;;7.47;;
13720;SDS011;6932;51.438;5.470;2022-12-18T05:30:56;15.83;;;8.37;;
13720;SDS011;6932;51.438;5.470;2022-12-18T05:33:25;16.37;;;8.43;;
13720;SDS011;6932;51.438;5.470;2022-12-18T05:35:55;17.00;;;8.60;;
13720;SDS011;6932;51.438;5.470;2022-12-18T05:38:27;16.40;;;8.30;;
13720;SDS011;6932;51.438;5.470;2022-12-18T05:40:54;17.47;;;8.43;;
13720;SDS011;6932;51.438;5.470;2022-12-18T05:43:20;17.27;;;8.30;;
13720;SDS011;6932;51.438;5.470;2022-12-18T05:45:50;17.83;;;8.70;;
13720;SDS011;6932;51.438;5.470;2022-12-18T05:48:16;17.23;;;8.43;;
13720;SDS011;6932;51.438;5.470;2022-12-18T05:50:44;15.97;;;8.50;;
13720;SDS011;6932;51.438;5.470;2022-12-18T05:53:12;16.37;;;8.43;;
13720;SDS011;6932;51.438;5.470;2022-12-18T05:55:41;16.00;;;8.80;;
13720;SDS011;6932;51.438;5.470;2022-12-18T05:58:09;15.97;;;8.90;;
13720;SDS011;6932;51.438;5.470;2022-12-18T06:00:37;15.97;;;7.87;;
13720;SDS011;6932;51.438;5.470;2022-12-18T06:03:09;16.57;;;9.17;;
13720;SDS011;6932;51.438;5.470;2022-12-18T06:05:38;16.00;;;8.70;;
13720;SDS011;6932;51.438;5.470;2022-12-18T06:08:07;14.73;;;8.07;;
13720;SDS011;6932;51.438;5.470;2022-12-18T06:10:33;14.80;;;7.43;;
13720;SDS011;6932;51.438;5.470;2022-12-18T06:12:59;16.00;;;8.33;;
13720;SDS011;6932;51.438;5.470;2022-12-18T06:15:26;16.43;;;8.20;;
13720;SDS011;6932;51.438;5.470;2022-12-18T06:17:52;16.13;;;8.13;;
13720;SDS011;6932;51.438;5.470;2022-12-18T06:20:18;14.47;;;7.83;;
13720;SDS011;6932;51.438;5.470;2022-12-18T06:22:44;16.77;;;8.47;;
13720;SDS011;6932;51.438;5.470;2022-12-18T06:25:10;15.83;;;8.00;;
13720;SDS011;6932;51.438;5.470;2022-12-18T06:27:36;16.27;;;8.20;;
13720;SDS011;6932;51.438;5.470;2022-12-18T06:30:01;18.43;;;8.43;;
13720;SDS011;6932;51.438;5.470;2022-12-18T06:32:28;15.53;;;7.80;;
13720;SDS011;6932;51.438;5.470;2022-12-18T06:34:54;16.73;;;8.33;;
13720;SDS011;6932;51.438;5.470;2022-12-18T06:37:20;13.93;;;8.07;;
13720;SDS011;6932;51.438;5.470;2022-12-18T06:39:51;15.07;;;7.97;;
13720;SDS011;6932;51.438;5.470;2022-12-18T06:42:17;14.00;;;7.53;;
13720;SDS011;6932;51.438;5.470;2022-12-18T06:44:46;18.13;;;7.93;;
13720;SDS011;6932;51.438;5.470;2022-12-18T06:47:12;16.33;;;8.03;;
13720;SDS011;6932;51.438;5.470;2022-12-18T06:49:37;15.73;;;7.97;;
13720;SDS011;6932;51.438;5.470;2022-12-18T06:52:03;16.87;;;8.20;;
13720;SDS011;6932;51.438;5.470;2022-12-18T06:54:29;15.10;;;7.90;;
13720;SDS011;6932;51.438;5.470;2022-12-18T06:56:54;15.43;;;7.83;;
13720;SDS011;6932;51.438;5.470;2022-12-18T06:59:20;15.73;;;8.03;;
13720;SDS011;6932;51.438;5.470;2022-12-18T07:01:46;16.27;;;8.43;;
13720;SDS011;6932;51.438;5.470;2022-12-18T07:04:12;15.93;;;8.60;;
13720;SDS011;6932;51.438;5.470;2022-12-18T07:06:37;16.23;;;8.23;;
13720;SDS011;6932;51.438;5.470;2022-12-18T07:09:03;16.40;;;8.20;;
13720;SDS011;6932;51.438;5.470;2022-12-18T07:11:29;15.70;;;8.30;;
13720;SDS011;6932;51.438;5.470;2022-12-18T07:13:58;16.00;;;8.33;;
13720;SDS011;6932;51.438;5.470;2022-12-18T07:16:23;15.23;;;8.07;;
13720;SDS011;6932;51.438;5.470;2022-12-18T07:18:49;14.77;;;7.67;;
13720;SDS011;6932;51.438;5.470;2022-12-18T07:21:17;15.77;;;8.23;;
13720;SDS011;6932;51.438;5.470;2022-12-18T07:23:45;14.83;;;8.10;;
13720;SDS011;6932;51.438;5.470;2022-12-18T07:26:13;16.23;;;8.27;;
13720;SDS011;6932;51.438;5.470;2022-12-18T07:28:40;14.67;;;7.90;;
13720;SDS011;6932;51.438;5.470;2022-12-18T07:31:08;16.10;;;8.40;;
13720;SDS011;6932;51.438;5.470;2022-12-18T07:33:39;14.20;;;7.67;;
13720;SDS011;6932;51.438;5.470;2022-12-18T07:36:06;16.33;;;8.77;;
13720;SDS011;6932;51.438;5.470;2022-12-18T07:38:33;15.63;;;9.07;;
13720;SDS011;6932;51.438;5.470;2022-12-18T07:41:04;16.07;;;8.70;;
13720;SDS011;6932;51.438;5.470;2022-12-18T07:43:33;16.07;;;8.30;;
13720;SDS011;6932;51.438;5.470;2022-12-18T07:45:59;16.67;;;8.87;;
13720;SDS011;6932;51.438;5.470;2022-12-18T07:48:26;15.50;;;8.47;;
13720;SDS011;6932;51.438;5.470;2022-12-18T07:50:52;15.67;;;8.70;;
13720;SDS011;6932;51.438;5.470;2022-12-18T07:53:18;18.50;;;8.63;;
13720;SDS011;6932;51.438;5.470;2022-12-18T07:55:44;16.00;;;8.10;;
13720;SDS011;6932;51.438;5.470;2022-12-18T07:58:10;15.80;;;8.50;;
13720;SDS011;6932;51.438;5.470;2022-12-18T08:00:36;16.70;;;9.00;;
13720;SDS011;6932;51.438;5.470;2022-12-18T08:03:02;15.33;;;8.80;;
13720;SDS011;6932;51.438;5.470;2022-12-18T08:05:27;16.73;;;9.00;;
13720;SDS011;6932;51.438;5.470;2022-12-18T08:07:53;17.80;;;8.90;;
13720;SDS011;6932;51.438;5.470;2022-12-18T08:10:19;16.60;;;8.43;;
13720;SDS011;6932;51.438;5.470;2022-12-18T08:12:49;16.70;;;9.33;;
13720;SDS011;6932;51.438;5.470;2022-12-18T08:15:16;18.70;;;9.90;;
13720;SDS011;6932;51.438;5.470;2022-12-18T08:17:42;16.77;;;9.07;;
13720;SDS011;6932;51.438;5.470;2022-12-18T08:20:08;16.10;;;8.30;;
13720;SDS011;6932;51.438;5.470;2022-12-18T08:22:35;18.13;;;9.47;;
13720;SDS011;6932;51.438;5.470;2022-12-18T08:25:04;18.00;;;9.47;;
13720;SDS011;6932;51.438;5.470;2022-12-18T08:27:31;16.77;;;8.83;;
13720;SDS011;6932;51.438;5.470;2022-12-18T08:29:57;15.80;;;8.57;;
13720;SDS011;6932;51.438;5.470;2022-12-18T08:32:23;18.17;;;8.80;;
13720;SDS011;6932;51.438;5.470;2022-12-18T08:34:51;18.63;;;9.17;;
13720;SDS011;6932;51.438;5.470;2022-12-18T08:37:17;17.03;;;9.10;;
13720;SDS011;6932;51.438;5.470;2022-12-18T08:39:43;16.47;;;8.37;;
13720;SDS011;6932;51.438;5.470;2022-12-18T08:42:09;16.77;;;8.90;;
13720;SDS011;6932;51.438;5.470;2022-12-18T08:44:53;16.97;;;8.90;;
13720;SDS011;6932;51.438;5.470;2022-12-18T08:47:19;16.30;;;9.13;;
13720;SDS011;6932;51.438;5.470;2022-12-18T08:49:45;16.63;;;9.00;;
13720;SDS011;6932;51.438;5.470;2022-12-18T08:52:11;16.70;;;9.27;;
13720;SDS011;6932;51.438;5.470;2022-12-18T08:54:39;18.03;;;9.83;;
13720;SDS011;6932;51.438;5.470;2022-12-18T08:57:05;17.20;;;9.40;;
13720;SDS011;6932;51.438;5.470;2022-12-18T08:59:31;17.10;;;9.33;;
13720;SDS011;6932;51.438;5.470;2022-12-18T09:01:57;17.77;;;10.17;;
13720;SDS011;6932;51.438;5.470;2022-12-18T09:04:23;17.83;;;10.27;;
13720;SDS011;6932;51.438;5.470;2022-12-18T09:06:48;16.60;;;9.97;;
13720;SDS011;6932;51.438;5.470;2022-12-18T09:09:14;18.33;;;10.33;;
13720;SDS011;6932;51.438;5.470;2022-12-18T09:11:40;17.43;;;9.90;;
13720;SDS011;6932;51.438;5.470;2022-12-18T09:14:06;19.03;;;9.53;;
13720;SDS011;6932;51.438;5.470;2022-12-18T09:16:33;19.47;;;10.77;;
13720;SDS011;6932;51.438;5.470;2022-12-18T09:19:00;16.60;;;9.47;;
13720;SDS011;6932;51.438;5.470;2022-12-18T09:21:30;17.67;;;9.80;;
13720;SDS011;6932;51.438;5.470;2022-12-18T09:23:58;17.40;;;10.00;;
13720;SDS011;6932;51.438;5.470;2022-12-18T09:26:25;16.17;;;9.60;;
13720;SDS011;6932;51.438;5.470;2022-12-18T09:28:52;18.63;;;10.03;;
13720;SDS011;6932;51.438;5.470;2022-12-18T09:31:19;17.10;;;10.10;;
13720;SDS011;6932;51.438;5.470;2022-12-18T09:33:48;18.63;;;10.17;;
13720;SDS011;6932;51.438;5.470;2022-12-18T09:36:15;19.23;;;10.63;;
13720;SDS011;6932;51.438;5.470;2022-12-18T09:38:43;18.23;;;10.13;;
13720;SDS011;6932;51.438;5.470;2022-12-18T09:44:05;18.87;;;10.80;;
13720;SDS011;6932;51.438;5.470;2022-12-18T09:47:06;19.10;;;10.60;;
13720;SDS011;6932;51.438;5.470;2022-12-18T09:49:49;17.73;;;10.37;;
13720;SDS011;6932;51.438;5.470;2022-12-18T09:58:28;17.57;;;10.30;;
13720;SDS011;6932;51.438;5.470;2022-12-18T10:01:22;16.97;;;9.60;;
13720;SDS011;6932;51.438;5.470;2022-12-18T10:03:49;19.10;;;10.40;;
13720;SDS011;6932;51.438;5.470;2022-12-18T10:25:34;19.07;;;11.50;;
13720;SDS011;6932;51.438;5.470;2022-12-18T10:28:20;18.10;;;10.80;;
13720;SDS011;6932;51.438;5.470;2022-12-18T10:30:47;18.97;;;11.17;;
13720;SDS011;6932;51.438;5.470;2022-12-18T10:33:17;18.30;;;11.30;;
13720;SDS011;6932;51.438;5.470;2022-12-18T10:35:47;18.83;;;11.80;;
13720;SDS011;6932;51.438;5.470;2022-12-18T10:40:55;20.37;;;11.43;;
13720;SDS011;6932;51.438;5.470;2022-12-18T10:43:26;20.23;;;12.53;;
13720;SDS011;6932;51.438;5.470;2022-12-18T10:48:34;20.53;;;11.60;;
13720;SDS011;6932;51.438;5.470;2022-12-18T10:51:04;19.03;;;10.50;;
13720;SDS011;6932;51.438;5.470;2022-12-18T10:53:33;19.73;;;11.13;;
13720;SDS011;6932;51.438;5.470;2022-12-18T10:56:02;17.70;;;10.20;;
13720;SDS011;6932;51.438;5.470;2022-12-18T10:58:32;18.00;;;9.97;;
13720;SDS011;6932;51.438;5.470;2022-12-18T11:01:05;17.53;;;9.97;;
13720;SDS011;6932;51.438;5.470;2022-12-18T11:06:12;18.30;;;9.57;;
13720;SDS011;6932;51.438;5.470;2022-12-18T11:08:41;16.57;;;9.87;;
13720;SDS011;6932;51.438;5.470;2022-12-18T11:11:22;20.33;;;10.77;;
13720;SDS011;6932;51.438;5.470;2022-12-18T11:16:43;18.90;;;10.10;;
13720;SDS011;6932;51.438;5.470;2022-12-18T11:21:56;17.43;;;10.50;;
13720;SDS011;6932;51.438;5.470;2022-12-18T11:24:26;17.47;;;10.30;;
13720;SDS011;6932;51.438;5.470;2022-12-18T11:27:02;18.50;;;9.93;;
13720;SDS011;6932;51.438;5.470;2022-12-18T11:29:32;17.70;;;10.20;;
13720;SDS011;6932;51.438;5.470;2022-12-18T11:37:41;18.43;;;10.47;;
13720;SDS011;6932;51.438;5.470;2022-12-18T11:40:22;21.57;;;10.90;;
13720;SDS011;6932;51.438;5.470;2022-12-18T11:43:07;19.30;;;10.60;;
13720;SDS011;6932;51.438;5.470;2022-12-18T11:45:52;18.63;;;10.30;;
13720;SDS011;6932;51.438;5.470;2022-12-18T11:48:27;15.83;;;9.27;;
13720;SDS011;6932;51.438;5.470;2022-12-18T11:51:02;17.47;;;10.03;;
13720;SDS011;6932;51.438;5.470;2022-12-18T11:53:39;17.33;;;9.73;;
13720;SDS011;6932;51.438;5.470;2022-12-18T11:56:11;18.23;;;9.97;;
13720;SDS011;6932;51.438;5.470;2022-12-18T12:02:11;17.90;;;10.73;;
13720;SDS011;6932;51.438;5.470;2022-12-18T12:17:42;17.73;;;10.03;;
13720;SDS011;6932;51.438;5.470;2022-12-18T12:23:22;17.80;;;9.93;;
13720;SDS011;6932;51.438;5.470;2022-12-18T12:26:30;17.70;;;10.10;;
13720;SDS011;6932;51.438;5.470;2022-12-18T12:40:29;17.90;;;10.43;;
13720;SDS011;6932;51.438;5.470;2022-12-18T12:43:44;19.07;;;10.50;;
13720;SDS011;6932;51.438;5.470;2022-12-18T12:46:10;18.30;;;10.60;;
13720;SDS011;6932;51.438;5.470;2022-12-18T12:54:01;18.37;;;10.63;;
13720;SDS011;6932;51.438;5.470;2022-12-18T12:56:54;18.20;;;10.00;;
13720;SDS011;6932;51.438;5.470;2022-12-18T13:02:39;17.37;;;10.47;;
13720;SDS011;6932;51.438;5.470;2022-12-18T13:08:24;19.87;;;11.07;;
13720;SDS011;6932;51.438;5.470;2022-12-18T13:10:57;20.30;;;11.87;;
13720;SDS011;6932;51.438;5.470;2022-12-18T13:13:53;19.00;;;10.77;;
13720;SDS011;6932;51.438;5.470;2022-12-18T13:16:24;18.13;;;10.70;;
13720;SDS011;6932;51.438;5.470;2022-12-18T13:18:55;18.30;;;10.37;;
13720;SDS011;6932;51.438;5.470;2022-12-18T13:21:30;19.30;;;10.73;;
13720;SDS011;6932;51.438;5.470;2022-12-18T13:27:00;18.40;;;10.57;;
13720;SDS011;6932;51.438;5.470;2022-12-18T13:30:27;17.90;;;11.13;;
13720;SDS011;6932;51.438;5.470;2022-12-18T13:41:01;18.70;;;10.80;;
13720;SDS011;6932;51.438;5.470;2022-12-18T13:43:48;20.70;;;11.77;;
13720;SDS011;6932;51.438;5.470;2022-12-18T13:48:57;19.33;;;11.63;;
13720;SDS011;6932;51.438;5.470;2022-12-18T13:51:50;18.37;;;10.70;;
13720;SDS011;6932;51.438;5.470;2022-12-18T13:54:30;18.73;;;10.53;;
13720;SDS011;6932;51.438;5.470;2022-12-18T13:57:04;18.30;;;11.10;;
13720;SDS011;6932;51.438;5.470;2022-12-18T14:00:14;19.37;;;11.23;;
13720;SDS011;6932;51.438;5.470;2022-12-18T14:02:53;18.63;;;11.03;;
13720;SDS011;6932;51.438;5.470;2022-12-18T14:05:22;20.13;;;11.37;;
13720;SDS011;6932;51.438;5.470;2022-12-18T14:07:50;19.37;;;11.43;;
13720;SDS011;6932;51.438;5.470;2022-12-18T14:10:18;19.47;;;11.30;;
13720;SDS011;6932;51.438;5.470;2022-12-18T14:12:48;19.43;;;11.33;;
13720;SDS011;6932;51.438;5.470;2022-12-18T14:20:59;18.93;;;11.07;;
13720;SDS011;6932;51.438;5.470;2022-12-18T14:23:41;18.57;;;11.37;;
13720;SDS011;6932;51.438;5.470;2022-12-18T14:26:20;18.80;;;11.40;;
13720;SDS011;6932;51.438;5.470;2022-12-18T14:28:47;20.30;;;11.33;;
13720;SDS011;6932;51.438;5.470;2022-12-18T14:31:17;18.07;;;10.70;;
13720;SDS011;6932;51.438;5.470;2022-12-18T14:33:44;17.83;;;11.10;;
13720;SDS011;6932;51.438;5.470;2022-12-18T14:36:28;18.40;;;11.30;;
13720;SDS011;6932;51.438;5.470;2022-12-18T14:38:55;18.97;;;11.33;;
13720;SDS011;6932;51.438;5.470;2022-12-18T14:41:23;19.53;;;11.17;;
13720;SDS011;6932;51.438;5.470;2022-12-18T14:43:51;18.53;;;11.17;;
13720;SDS011;6932;51.438;5.470;2022-12-18T14:52:05;20.07;;;11.33;;
13720;SDS011;6932;51.438;5.470;2022-12-18T14:54:51;18.60;;;11.03;;
13720;SDS011;6932;51.438;5.470;2022-12-18T14:57:21;18.93;;;11.37;;
13720;SDS011;6932;51.438;5.470;2022-12-18T15:00:07;19.80;;;11.97;;
13720;SDS011;6932;51.438;5.470;2022-12-18T15:02:46;20.20;;;11.53;;
13720;SDS011;6932;51.438;5.470;2022-12-18T15:05:26;19.27;;;11.30;;
13720;SDS011;6932;51.438;5.470;2022-12-18T15:07:58;20.30;;;12.20;;
13720;SDS011;6932;51.438;5.470;2022-12-18T15:10:31;18.37;;;11.33;;
13720;SDS011;6932;51.438;5.470;2022-12-18T15:15:47;19.10;;;11.13;;
13720;SDS011;6932;51.438;5.470;2022-12-18T15:18:14;19.03;;;11.27;;
13720;SDS011;6932;51.438;5.470;2022-12-18T15:23:21;18.57;;;11.37;;
13720;SDS011;6932;51.438;5.470;2022-12-18T15:26:13;19.47;;;11.70;;
13720;SDS011;6932;51.438;5.470;2022-12-18T15:28:49;21.73;;;12.70;;
13720;SDS011;6932;51.438;5.470;2022-12-18T15:31:28;20.47;;;11.67;;
13720;SDS011;6932;51.438;5.470;2022-12-18T15:34:05;19.03;;;11.27;;
13720;SDS011;6932;51.438;5.470;2022-12-18T15:36:47;16.97;;;9.80;;
13720;SDS011;6932;51.438;5.470;2022-12-18T15:39:15;18.50;;;10.43;;
13720;SDS011;6932;51.438;5.470;2022-12-18T15:41:41;20.03;;;11.07;;
13720;SDS011;6932;51.438;5.470;2022-12-18T15:44:27;16.13;;;9.77;;
13720;SDS011;6932;51.438;5.470;2022-12-18T15:46:56;18.93;;;10.60;;
13720;SDS011;6932;51.438;5.470;2022-12-18T15:49:23;17.10;;;10.17;;
13720;SDS011;6932;51.438;5.470;2022-12-18T15:51:51;17.47;;;10.07;;
13720;SDS011;6932;51.438;5.470;2022-12-18T15:54:21;18.10;;;10.63;;
13720;SDS011;6932;51.438;5.470;2022-12-18T15:57:08;17.03;;;10.17;;
13720;SDS011;6932;51.438;5.470;2022-12-18T15:59:48;19.00;;;10.40;;
13720;SDS011;6932;51.438;5.470;2022-12-18T16:02:18;19.27;;;10.87;;
13720;SDS011;6932;51.438;5.470;2022-12-18T16:04:45;20.10;;;11.43;;
13720;SDS011;6932;51.438;5.470;2022-12-18T16:07:11;20.30;;;10.83;;
13720;SDS011;6932;51.438;5.470;2022-12-18T16:09:37;19.27;;;10.30;;
13720;SDS011;6932;51.438;5.470;2022-12-18T16:12:03;19.10;;;11.30;;
13720;SDS011;6932;51.438;5.470;2022-12-18T16:14:32;17.87;;;10.60;;
13720;SDS011;6932;51.438;5.470;2022-12-18T16:17:02;20.33;;;11.10;;
13720;SDS011;6932;51.438;5.470;2022-12-18T16:19:33;17.90;;;9.83;;
13720;SDS011;6932;51.438;5.470;2022-12-18T16:21:59;18.60;;;10.20;;
13720;SDS011;6932;51.438;5.470;2022-12-18T16:24:29;17.50;;;10.97;;
13720;SDS011;6932;51.438;5.470;2022-12-18T16:26:58;19.70;;;11.27;;
13720;SDS011;6932;51.438;5.470;2022-12-18T16:29:26;17.63;;;10.43;;
13720;SDS011;6932;51.438;5.470;2022-12-18T16:31:53;20.17;;;12.27;;
13720;SDS011;6932;51.438;5.470;2022-12-18T16:34:26;22.93;;;12.90;;
13720;SDS011;6932;51.438;5.470;2022-12-18T16:36:54;19.53;;;11.67;;
13720;SDS011;6932;51.438;5.470;2022-12-18T16:39:23;21.10;;;12.93;;
13720;SDS011;6932;51.438;5.470;2022-12-18T16:41:48;20.60;;;12.13;;
13720;SDS011;6932;51.438;5.470;2022-12-18T16:44:14;21.37;;;12.60;;
13720;SDS011;6932;51.438;5.470;2022-12-18T16:46:40;19.47;;;11.90;;
13720;SDS011;6932;51.438;5.470;2022-12-18T16:49:13;18.47;;;11.33;;
13720;SDS011;6932;51.438;5.470;2022-12-18T16:51:41;19.83;;;11.97;;
13720;SDS011;6932;51.438;5.470;2022-12-18T16:54:09;21.33;;;12.83;;
13720;SDS011;6932;51.438;5.470;2022-12-18T16:56:35;19.83;;;11.83;;
13720;SDS011;6932;51.438;5.470;2022-12-18T16:59:01;20.50;;;12.77;;
13720;SDS011;6932;51.438;5.470;2022-12-18T17:01:29;20.87;;;12.80;;
13720;SDS011;6932;51.438;5.470;2022-12-18T17:03:57;19.27;;;12.33;;
13720;SDS011;6932;51.438;5.470;2022-12-18T17:06:29;19.03;;;11.87;;
13720;SDS011;6932;51.438;5.470;2022-12-18T17:09:02;19.80;;;12.37;;
13720;SDS011;6932;51.438;5.470;2022-12-18T17:11:31;20.10;;;11.70;;
13720;SDS011;6932;51.438;5.470;2022-12-18T17:13:59;19.80;;;12.80;;
13720;SDS011;6932;51.438;5.470;2022-12-18T17:16:37;19.63;;;12.33;;
13720;SDS011;6932;51.438;5.470;2022-12-18T17:19:03;19.23;;;12.33;;
13720;SDS011;6932;51.438;5.470;2022-12-18T17:21:29;19.83;;;12.30;;
13720;SDS011;6932;51.438;5.470;2022-12-18T17:23:55;21.03;;;12.20;;
13720;SDS011;6932;51.438;5.470;2022-12-18T17:26:25;19.67;;;12.30;;
13720;SDS011;6932;51.438;5.470;2022-12-18T17:28:52;19.83;;;12.10;;
13720;SDS011;6932;51.438;5.470;2022-12-18T17:31:21;21.07;;;12.50;;
13720;SDS011;6932;51.438;5.470;2022-12-18T17:33:49;19.83;;;12.43;;
13720;SDS011;6932;51.438;5.470;2022-12-18T17:36:16;21.63;;;13.20;;